createdAt,value
2023-05-01T00:01:59.652Z,67.20
2023-05-01T00:04:26.338Z,67.20
2023-05-01T00:06:53.515Z,67.20
2023-05-01T00:09:20.526Z,67.20
2023-05-01T00:11:47.236Z,67.20
2023-05-01T00:14:13.864Z,67.20
2023-05-01T00:16:40.901Z,67.20
2023-05-01T00:19:08.182Z,67.10
2023-05-01T00:21:34.828Z,67.20
2023-05-01T00:24:01.437Z,67.20
2023-05-01T00:26:31.109Z,67.10
2023-05-01T00:28:58.336Z,67.10
2023-05-01T00:31:25.998Z,67.10
2023-05-01T00:33:53.144Z,67.10
2023-05-01T00:36:20.183Z,67.10
2023-05-01T00:38:46.856Z,67.10
2023-05-01T00:41:13.595Z,67.10
2023-05-01T00:43:40.191Z,67.10
2023-05-01T00:46:08.554Z,67.10
2023-05-01T00:48:36.114Z,67.10
2023-05-01T00:51:06.099Z,67.10
2023-05-01T00:53:34.111Z,67.10
2023-05-01T00:56:01.389Z,67.10
2023-05-01T00:58:29.214Z,67.10
2023-05-01T01:00:56.820Z,67.10
2023-05-01T01:03:23.525Z,67.10
2023-05-01T01:06:09.707Z,67.10
2023-05-01T01:09:01.729Z,67.00
2023-05-01T01:11:39.602Z,67.00
2023-05-01T01:14:14.148Z,67.00
2023-05-01T01:16:51.182Z,67.00
2023-05-01T01:19:27.020Z,67.00
2023-05-01T01:21:58.805Z,67.00
2023-05-01T01:24:55.253Z,67.00
2023-05-01T01:27:59.404Z,67.10
2023-05-01T01:30:49.869Z,67.10
2023-05-01T01:33:41.522Z,67.00
2023-05-01T01:36:15.324Z,67.10
2023-05-01T01:38:51.329Z,67.00
2023-05-01T01:41:24.098Z,67.10
2023-05-01T01:44:01.239Z,67.10
2023-05-01T01:46:28.649Z,67.10
2023-05-01T01:48:57.406Z,67.10
2023-05-01T01:51:26.908Z,67.00
2023-05-01T01:53:56.885Z,67.00
2023-05-01T01:56:27.889Z,67.00
2023-05-01T01:58:56.019Z,67.00
2023-05-01T02:01:25.345Z,66.90
2023-05-01T02:03:53.468Z,66.90
2023-05-01T02:06:21.927Z,66.90
2023-05-01T02:08:49.885Z,66.90
2023-05-01T02:11:19.350Z,66.80
2023-05-01T02:13:47.496Z,66.80
2023-05-01T02:16:16.204Z,66.80
2023-05-01T02:18:46.208Z,66.80
2023-05-01T02:21:14.589Z,66.80
2023-05-01T02:23:41.872Z,66.80
2023-05-01T02:26:16.908Z,66.80
2023-05-01T02:28:44.093Z,66.70
2023-05-01T02:31:11.519Z,66.80
2023-05-01T02:33:38.181Z,66.70
2023-05-01T02:36:05.386Z,66.80
2023-05-01T02:38:32.650Z,66.70
2023-05-01T02:41:02.278Z,66.70
2023-05-01T02:43:31.517Z,66.70
2023-05-01T02:45:59.724Z,66.70
2023-05-01T02:48:28.430Z,66.70
2023-05-01T02:50:56.713Z,66.70
2023-05-01T02:53:23.621Z,66.70
2023-05-01T02:55:50.984Z,66.70
2023-05-01T02:58:20.866Z,66.70
2023-05-01T03:00:50.095Z,66.70
2023-05-01T03:03:17.370Z,66.70
2023-05-01T03:05:44.422Z,66.70
2023-05-01T03:08:11.773Z,66.60
2023-05-01T03:10:44.491Z,66.60
2023-05-01T03:13:11.930Z,66.60
2023-05-01T03:15:39.242Z,66.60
2023-05-01T03:18:07.030Z,66.60
2023-05-01T03:20:34.049Z,66.70
2023-05-01T03:23:01.046Z,66.70
2023-05-01T03:25:27.649Z,66.70
2023-05-01T03:27:55.184Z,66.70
2023-05-01T03:30:22.152Z,66.70
2023-05-01T03:32:49.062Z,66.70
2023-05-01T03:35:15.896Z,66.70
2023-05-01T03:37:42.709Z,66.70
2023-05-01T03:40:09.740Z,66.70
2023-05-01T03:42:36.379Z,66.70
2023-05-01T03:45:03.103Z,66.60
2023-05-01T03:47:30.254Z,66.60
2023-05-01T03:49:57.611Z,66.60
2023-05-01T03:52:24.529Z,66.70
2023-05-01T03:54:51.249Z,66.70
2023-05-01T03:57:18.077Z,66.60
2023-05-01T03:59:44.780Z,66.70
2023-05-01T04:02:11.574Z,66.70
2023-05-01T04:04:38.417Z,66.80
2023-05-01T04:07:05.603Z,66.70
2023-05-01T04:09:32.263Z,66.70
2023-05-01T04:11:59.075Z,66.80
2023-05-01T04:14:25.802Z,66.80
2023-05-01T04:16:52.585Z,66.70
2023-05-01T04:19:19.231Z,66.80
2023-05-01T04:21:46.304Z,66.80
2023-05-01T04:24:13.307Z,66.70
2023-05-01T04:26:40.009Z,66.70
2023-05-01T04:29:06.698Z,66.70
2023-05-01T04:31:33.427Z,66.80
2023-05-01T04:34:00.488Z,66.80
2023-05-01T04:36:27.395Z,66.80
2023-05-01T04:38:54.100Z,66.80
2023-05-01T04:41:21.477Z,66.80
2023-05-01T04:43:48.163Z,66.70
2023-05-01T04:46:14.882Z,66.80
2023-05-01T04:48:41.529Z,66.80
2023-05-01T04:51:08.611Z,66.70
2023-05-01T04:53:35.430Z,66.70
2023-05-01T04:56:02.267Z,66.70
2023-05-01T04:58:29.094Z,66.70
2023-05-01T05:00:55.732Z,66.70
2023-05-01T05:03:22.494Z,66.70
2023-05-01T05:05:49.355Z,66.70
2023-05-01T05:08:16.050Z,66.70
2023-05-01T05:10:42.635Z,66.70
2023-05-01T05:13:10.082Z,66.70
2023-05-01T05:15:36.680Z,66.70
2023-05-01T05:18:03.844Z,66.70
2023-05-01T05:20:30.741Z,66.70
2023-05-01T05:22:57.522Z,66.70
2023-05-01T05:25:24.719Z,66.70
2023-05-01T05:27:51.760Z,66.70
2023-05-01T05:30:18.668Z,66.70
2023-05-01T05:32:47.247Z,66.70
2023-05-01T05:35:14.166Z,66.80
2023-05-01T05:37:41.063Z,66.70
2023-05-01T05:40:08.460Z,66.70
2023-05-01T05:42:35.107Z,66.70
2023-05-01T05:45:01.929Z,66.80
2023-05-01T05:47:28.516Z,66.70
2023-05-01T05:49:55.928Z,66.80
2023-05-01T05:52:22.702Z,66.90
2023-05-01T05:54:49.399Z,67.00
2023-05-01T05:57:16.110Z,67.00
2023-05-01T05:59:44.237Z,67.00
2023-05-01T06:02:11.164Z,67.00
2023-05-01T06:04:37.848Z,67.00
2023-05-01T06:07:06.282Z,67.10
2023-05-01T06:09:33.421Z,67.10
2023-05-01T06:12:00.081Z,67.10
2023-05-01T06:14:27.147Z,67.10
2023-05-01T06:16:53.957Z,67.10
2023-05-01T06:19:20.793Z,67.00
2023-05-01T06:21:47.412Z,67.10
2023-05-01T06:24:14.047Z,67.00
2023-05-01T06:26:40.771Z,67.00
2023-05-01T06:29:07.430Z,67.00
2023-05-01T06:31:34.134Z,67.00
2023-05-01T06:34:00.727Z,66.90
2023-05-01T06:36:27.853Z,66.90
2023-05-01T06:38:54.540Z,66.90
2023-05-01T06:41:22.104Z,66.90
2023-05-01T06:43:48.788Z,66.90
2023-05-01T06:46:15.497Z,66.90
2023-05-01T06:48:42.097Z,66.90
2023-05-01T06:51:08.797Z,66.80
2023-05-01T06:53:36.756Z,66.80
2023-05-01T06:56:03.577Z,66.80
2023-05-01T06:58:30.249Z,66.80
2023-05-01T07:00:57.035Z,66.80
2023-05-01T07:03:23.780Z,66.70
2023-05-01T07:05:50.389Z,66.70
2023-05-01T07:08:17.237Z,66.80
2023-05-01T07:10:43.861Z,66.70
2023-05-01T07:13:10.587Z,66.70
2023-05-01T07:15:37.429Z,66.70
2023-05-01T07:18:06.218Z,66.60
2023-05-01T07:20:33.288Z,66.60
2023-05-01T07:23:00.204Z,66.60
2023-05-01T07:25:26.842Z,66.70
2023-05-01T07:27:54.240Z,66.60
2023-05-01T07:30:21.019Z,66.70
2023-05-01T07:32:48.029Z,66.70
2023-05-01T07:35:14.826Z,66.70
2023-05-01T07:37:41.495Z,66.70
2023-05-01T07:40:08.478Z,66.70
2023-05-01T07:42:35.114Z,66.60
2023-05-01T07:45:01.954Z,66.60
2023-05-01T07:47:28.820Z,66.70
2023-05-01T07:49:55.870Z,66.60
2023-05-01T07:52:22.936Z,66.50
2023-05-01T07:54:50.951Z,66.60
2023-05-01T07:57:17.726Z,66.70
2023-05-01T07:59:44.501Z,66.80
2023-05-01T08:02:11.648Z,66.60
2023-05-01T08:04:38.488Z,66.60
2023-05-01T08:07:05.285Z,66.70
2023-05-01T08:09:32.117Z,66.60
2023-05-01T08:11:58.753Z,66.60
2023-05-01T08:14:25.431Z,66.60
2023-05-01T08:16:55.349Z,66.50
2023-05-01T08:19:23.147Z,66.60
2023-05-01T08:21:50.066Z,66.50
2023-05-01T08:24:16.691Z,66.70
2023-05-01T08:26:43.434Z,66.70
2023-05-01T08:29:10.298Z,66.80
2023-05-01T08:31:37.986Z,66.90
2023-05-01T08:34:04.994Z,66.80
2023-05-01T08:36:32.579Z,66.70
2023-05-01T08:38:59.339Z,66.70
2023-05-01T08:41:28.597Z,66.70
2023-05-01T08:43:58.716Z,66.50
2023-05-01T08:46:44.959Z,66.70
2023-05-01T08:49:15.626Z,66.70
2023-05-01T08:51:46.326Z,66.70
2023-05-01T08:54:15.159Z,66.80
2023-05-01T08:56:44.739Z,66.60
2023-05-01T08:59:13.742Z,66.60
2023-05-01T09:01:41.898Z,66.60
2023-05-01T09:04:09.805Z,66.50
2023-05-01T09:06:36.706Z,66.30
2023-05-01T09:09:03.449Z,66.20
2023-05-01T09:11:30.334Z,66.10
2023-05-01T09:13:57.275Z,65.80
2023-05-01T09:16:24.196Z,65.70
2023-05-01T09:18:51.321Z,65.70
2023-05-01T09:21:18.541Z,65.70
2023-05-01T09:23:45.316Z,65.40
2023-05-01T09:26:12.302Z,65.40
2023-05-01T09:28:47.222Z,65.60
2023-05-01T09:31:29.002Z,65.00
2023-05-01T09:33:57.219Z,65.00
2023-05-01T09:36:25.588Z,65.20
2023-05-01T09:38:52.538Z,64.80
2023-05-01T09:41:21.031Z,64.40
2023-05-01T09:43:56.021Z,64.50
2023-05-01T09:46:27.687Z,64.40
2023-05-01T09:48:58.885Z,64.00
2023-05-01T09:51:30.405Z,63.90
2023-05-01T09:54:04.895Z,63.80
2023-05-01T09:56:33.932Z,64.30
2023-05-01T09:59:16.353Z,63.80
2023-05-01T10:01:46.017Z,63.30
2023-05-01T10:04:13.304Z,63.30
2023-05-01T10:06:40.521Z,63.30
2023-05-01T10:09:16.371Z,64.70
2023-05-01T10:11:52.258Z,64.60
2023-05-01T10:14:20.299Z,65.00
2023-05-01T10:16:47.068Z,66.30
2023-05-01T10:19:17.382Z,65.60
2023-05-01T10:21:44.119Z,64.90
2023-05-01T10:24:11.144Z,64.20
2023-05-01T10:26:38.106Z,63.50
2023-05-01T10:29:04.882Z,62.70
2023-05-01T10:31:33.043Z,61.90
2023-05-01T10:34:01.874Z,63.30
2023-05-01T10:36:37.328Z,62.80
2023-05-01T10:39:04.194Z,62.20
2023-05-01T10:41:58.772Z,63.30
2023-05-01T10:44:26.940Z,64.00
2023-05-01T10:46:54.452Z,64.10
2023-05-01T10:49:22.121Z,63.70
2023-05-01T10:51:58.769Z,63.90
2023-05-01T10:54:26.989Z,63.80
2023-05-01T10:56:55.909Z,63.20
2023-05-01T10:59:22.708Z,63.30
2023-05-01T11:01:51.968Z,62.80
2023-05-01T11:04:27.496Z,62.50
2023-05-01T11:07:07.803Z,62.00
2023-05-01T11:09:59.626Z,61.60
2023-05-01T11:12:45.731Z,62.10
2023-05-01T11:15:13.525Z,61.80
2023-05-01T11:17:40.691Z,61.70
2023-05-01T11:20:08.839Z,62.20
2023-05-01T11:22:37.093Z,62.30
2023-05-01T11:25:04.967Z,62.40
2023-05-01T11:27:32.184Z,62.60
2023-05-01T11:29:59.748Z,62.60
2023-05-01T11:32:31.998Z,62.80
2023-05-01T11:34:58.961Z,62.70
2023-05-01T11:37:45.040Z,63.00
2023-05-01T11:40:26.201Z,63.10
2023-05-01T11:43:04.536Z,63.00
2023-05-01T11:45:31.957Z,63.30
2023-05-01T11:48:00.552Z,63.50
2023-05-01T11:50:37.186Z,63.40
2023-05-01T11:53:11.833Z,63.50
2023-05-01T11:55:38.765Z,63.70
2023-05-01T11:58:06.157Z,64.20
2023-05-01T12:00:36.631Z,63.80
2023-05-01T12:03:06.447Z,63.90
2023-05-01T12:05:37.931Z,64.00
2023-05-01T12:08:19.013Z,64.10
2023-05-01T12:10:52.161Z,64.30
2023-05-01T12:13:19.819Z,64.20
2023-05-01T12:15:48.390Z,64.50
2023-05-01T12:18:16.978Z,64.40
2023-05-01T12:20:48.712Z,64.80
2023-05-01T12:23:16.846Z,65.20
2023-05-01T12:25:44.749Z,65.40
2023-05-01T12:28:16.864Z,65.70
2023-05-01T12:30:45.846Z,66.00
2023-05-01T12:33:14.704Z,66.00
2023-05-01T12:35:45.190Z,65.70
2023-05-01T12:38:20.607Z,66.10
2023-05-01T12:40:58.276Z,66.10
2023-05-01T12:43:33.386Z,66.20
2023-05-01T12:46:01.382Z,66.20
2023-05-01T12:48:28.993Z,65.90
2023-05-01T12:50:56.026Z,66.20
2023-05-01T12:53:24.688Z,66.20
2023-05-01T12:55:56.894Z,66.30
2023-05-01T12:58:24.844Z,66.20
2023-05-01T13:00:53.651Z,66.10
2023-05-01T13:03:25.750Z,66.40
2023-05-01T13:06:01.102Z,65.70
2023-05-01T13:08:29.180Z,65.90
2023-05-01T13:10:57.934Z,65.60
2023-05-01T13:13:26.176Z,66.10
2023-05-01T13:15:53.193Z,66.30
2023-05-01T13:18:19.957Z,66.30
2023-05-01T13:20:46.854Z,66.30
2023-05-01T13:23:13.592Z,67.10
2023-05-01T13:25:40.488Z,66.30
2023-05-01T13:28:07.731Z,65.40
2023-05-01T13:30:34.759Z,65.20
2023-05-01T13:33:01.945Z,65.10
2023-05-01T13:35:28.688Z,63.30
2023-05-01T13:37:55.432Z,63.40
2023-05-01T13:40:25.008Z,62.10
2023-05-01T13:42:52.900Z,61.10
2023-05-01T13:45:21.142Z,61.30
2023-05-01T13:47:50.637Z,61.80
2023-05-01T13:50:18.007Z,61.80
2023-05-01T13:52:45.313Z,63.20
2023-05-01T13:55:12.765Z,63.10
2023-05-01T13:57:41.545Z,63.40
2023-05-01T14:00:10.720Z,62.80
2023-05-01T14:02:44.045Z,61.90
2023-05-01T14:05:11.273Z,60.90
2023-05-01T14:07:49.980Z,62.10
2023-05-01T14:10:16.616Z,61.00
2023-05-01T14:12:43.236Z,60.10
2023-05-01T14:15:12.181Z,60.70
2023-05-01T14:17:39.048Z,60.30
2023-05-01T14:20:06.687Z,60.20
2023-05-01T14:22:43.639Z,60.10
2023-05-01T14:25:31.519Z,60.80
2023-05-01T14:28:00.848Z,62.30
2023-05-01T14:30:37.250Z,60.90
2023-05-01T14:33:14.038Z,60.30
2023-05-01T14:35:51.834Z,59.40
2023-05-01T14:38:20.119Z,60.10
2023-05-01T14:40:47.989Z,59.90
2023-05-01T14:43:18.686Z,60.70
2023-05-01T14:45:46.554Z,59.90
2023-05-01T14:48:24.274Z,60.40
2023-05-01T14:50:51.961Z,60.50
2023-05-01T14:53:18.871Z,60.00
2023-05-01T14:55:45.656Z,60.20
2023-05-01T14:58:12.376Z,60.70
2023-05-01T15:00:39.085Z,60.30
2023-05-01T15:03:06.014Z,61.10
2023-05-01T15:05:33.560Z,61.10
2023-05-01T15:08:04.594Z,60.90
2023-05-01T15:10:32.365Z,61.00
2023-05-01T15:12:58.985Z,61.90
2023-05-01T15:15:26.778Z,61.40
2023-05-01T15:17:53.453Z,61.10
2023-05-01T15:20:20.088Z,62.10
2023-05-01T15:22:46.752Z,61.80
2023-05-01T15:25:14.653Z,60.90
2023-05-01T15:27:41.267Z,60.70
2023-05-01T15:30:10.090Z,61.20
2023-05-01T15:32:37.931Z,61.10
2023-05-01T15:35:05.038Z,61.10
2023-05-01T15:37:31.736Z,62.10
2023-05-01T15:39:59.610Z,61.50
2023-05-01T15:42:26.426Z,62.00
2023-05-01T15:44:53.057Z,61.80
2023-05-01T15:47:19.668Z,61.90
2023-05-01T15:49:46.368Z,62.10
2023-05-01T15:52:13.370Z,62.20
2023-05-01T15:54:40.094Z,62.00
2023-05-01T15:57:08.608Z,62.20
2023-05-01T15:59:35.254Z,62.70
2023-05-01T16:02:02.083Z,62.50
2023-05-01T16:04:28.723Z,62.80
2023-05-01T16:06:55.414Z,62.50
2023-05-01T16:09:29.210Z,62.50
2023-05-01T16:11:56.116Z,61.90
2023-05-01T16:14:22.828Z,61.90
2023-05-01T16:16:49.552Z,62.50
2023-05-01T16:19:16.732Z,62.40
2023-05-01T16:21:43.479Z,61.90
2023-05-01T16:24:10.938Z,62.50
2023-05-01T16:26:39.860Z,61.50
2023-05-01T16:29:07.408Z,61.40
2023-05-01T16:31:47.006Z,61.30
2023-05-01T16:34:15.229Z,62.00
2023-05-01T16:36:42.694Z,62.60
2023-05-01T16:39:15.427Z,62.90
2023-05-01T16:41:47.391Z,61.90
2023-05-01T16:44:16.278Z,62.10
2023-05-01T16:46:46.998Z,62.70
2023-05-01T16:49:14.285Z,62.30
2023-05-01T16:51:42.470Z,62.50
2023-05-01T16:54:09.205Z,62.30
2023-05-01T16:56:35.937Z,62.80
2023-05-01T16:59:02.586Z,62.20
2023-05-01T17:01:29.337Z,62.80
2023-05-01T17:03:56.245Z,63.20
2023-05-01T17:06:23.062Z,62.80
2023-05-01T17:08:50.137Z,63.40
2023-05-01T17:11:17.958Z,62.40
2023-05-01T17:13:44.613Z,63.30
2023-05-01T17:16:11.315Z,63.00
2023-05-01T17:18:37.920Z,63.20
2023-05-01T17:21:05.043Z,63.50
2023-05-01T17:23:31.674Z,63.40
2023-05-01T17:25:58.426Z,63.30
2023-05-01T17:28:25.179Z,63.50
2023-05-01T17:30:52.032Z,63.60
2023-05-01T17:33:18.760Z,63.80
2023-05-01T17:35:45.611Z,63.30
2023-05-01T17:38:12.302Z,63.30
2023-05-01T17:40:38.930Z,63.30
2023-05-01T17:43:05.732Z,63.40
2023-05-01T17:45:32.447Z,63.40
2023-05-01T17:47:59.171Z,63.40
2023-05-01T17:50:25.854Z,63.50
2023-05-01T17:53:11.875Z,63.60
2023-05-01T17:55:39.030Z,63.50
2023-05-01T17:58:06.935Z,63.90
2023-05-01T18:00:33.756Z,63.70
2023-05-01T18:03:00.806Z,63.40
2023-05-01T18:05:27.640Z,63.90
2023-05-01T18:07:55.943Z,63.80
2023-05-01T18:10:22.796Z,63.90
2023-05-01T18:12:49.831Z,63.90
2023-05-01T18:15:22.218Z,64.00
2023-05-01T18:17:49.887Z,64.40
2023-05-01T18:20:16.678Z,64.60
2023-05-01T18:22:43.415Z,64.60
2023-05-01T18:25:10.288Z,64.60
2023-05-01T18:27:41.124Z,64.40
2023-05-01T18:30:09.938Z,64.30
2023-05-01T18:32:47.385Z,64.20
2023-05-01T18:35:16.023Z,64.60
2023-05-01T18:37:51.771Z,64.60
2023-05-01T18:40:18.509Z,64.40
2023-05-01T18:42:45.332Z,64.60
2023-05-01T18:45:12.034Z,64.60
2023-05-01T18:47:39.119Z,64.90
2023-05-01T18:50:06.841Z,64.80
2023-05-01T18:52:33.511Z,64.80
2023-05-01T18:55:00.174Z,64.80
2023-05-01T18:57:31.519Z,64.90
2023-05-01T18:59:58.366Z,64.70
2023-05-01T19:02:25.221Z,64.80
2023-05-01T19:04:57.452Z,64.80
2023-05-01T19:07:26.084Z,65.00
2023-05-01T19:09:52.787Z,65.00
2023-05-01T19:12:19.448Z,65.00
2023-05-01T19:14:46.058Z,65.00
2023-05-01T19:17:12.893Z,65.00
2023-05-01T19:19:39.481Z,65.00
2023-05-01T19:22:07.211Z,65.20
2023-05-01T19:24:33.866Z,65.30
2023-05-01T19:27:01.618Z,65.30
2023-05-01T19:29:28.324Z,65.30
2023-05-01T19:31:55.160Z,65.50
2023-05-01T19:34:21.926Z,65.50
2023-05-01T19:36:48.558Z,65.60
2023-05-01T19:39:15.192Z,65.60
2023-05-01T19:41:41.815Z,65.70
2023-05-01T19:44:08.454Z,65.80
2023-05-01T19:46:35.135Z,65.90
2023-05-01T19:49:01.952Z,65.90
2023-05-01T19:51:28.699Z,66.10
2023-05-01T19:53:55.425Z,66.10
2023-05-01T19:56:23.104Z,66.20
2023-05-01T19:58:49.753Z,66.30
2023-05-01T20:01:16.559Z,66.30
2023-05-01T20:03:43.366Z,66.40
2023-05-01T20:06:10.110Z,66.50
2023-05-01T20:08:36.797Z,66.60
2023-05-01T20:11:03.491Z,66.70
2023-05-01T20:13:30.175Z,66.80
2023-05-01T20:15:56.854Z,66.90
2023-05-01T20:18:23.564Z,67.00
2023-05-01T20:20:50.447Z,67.10
2023-05-01T20:23:19.412Z,67.20
2023-05-01T20:25:51.531Z,67.20
2023-05-01T20:28:19.124Z,67.30
2023-05-01T20:30:47.316Z,67.40
2023-05-01T20:33:15.131Z,67.40
2023-05-01T20:35:41.966Z,67.50
2023-05-01T20:38:08.731Z,67.60
2023-05-01T20:40:37.244Z,67.50
2023-05-01T20:43:03.943Z,67.60
2023-05-01T20:45:30.853Z,67.50
2023-05-01T20:47:58.257Z,67.60
2023-05-01T20:50:25.925Z,67.50
2023-05-01T20:52:54.008Z,67.50
2023-05-01T20:55:20.982Z,67.50
2023-05-01T20:57:47.618Z,67.50
2023-05-01T21:00:14.618Z,67.50
2023-05-01T21:02:42.026Z,67.50
2023-05-01T21:05:10.265Z,67.50
2023-05-01T21:07:40.585Z,67.50
2023-05-01T21:10:09.892Z,67.40
2023-05-01T21:12:37.528Z,67.40
2023-05-01T21:15:05.682Z,67.30
2023-05-01T21:17:34.502Z,67.30
2023-05-01T21:20:01.657Z,67.30
2023-05-01T21:22:28.532Z,67.30
2023-05-01T21:24:57.447Z,67.30
2023-05-01T21:27:26.194Z,67.30
2023-05-01T21:29:58.013Z,67.20
2023-05-01T21:32:32.247Z,67.20
2023-05-01T21:35:00.006Z,67.20
2023-05-01T21:37:27.389Z,67.10
2023-05-01T21:39:54.152Z,67.10
2023-05-01T21:42:20.968Z,67.10
2023-05-01T21:44:47.834Z,67.10
2023-05-01T21:47:15.793Z,67.10
2023-05-01T21:49:42.550Z,67.10
2023-05-01T21:52:09.344Z,67.00
2023-05-01T21:54:36.787Z,67.00
2023-05-01T21:57:07.463Z,67.00
2023-05-01T21:59:38.840Z,67.00
2023-05-01T22:02:09.219Z,67.00
2023-05-01T22:04:37.115Z,67.00
2023-05-01T22:07:04.537Z,67.00
2023-05-01T22:09:32.437Z,67.00
2023-05-01T22:11:59.047Z,66.90
2023-05-01T22:14:33.667Z,66.90
2023-05-01T22:17:10.667Z,66.90
2023-05-01T22:19:37.893Z,66.80
2023-05-01T22:22:04.721Z,66.80
2023-05-01T22:24:31.568Z,66.80
2023-05-01T22:26:58.260Z,66.80
2023-05-01T22:29:24.968Z,66.80
2023-05-01T22:31:51.640Z,66.80
2023-05-01T22:34:18.369Z,66.80
2023-05-01T22:36:45.118Z,66.80
2023-05-01T22:39:12.101Z,66.80
2023-05-01T22:41:38.718Z,66.80
2023-05-01T22:44:06.354Z,66.80
2023-05-01T22:46:33.130Z,66.70
2023-05-01T22:49:03.157Z,66.80
2023-05-01T22:51:30.323Z,66.80
2023-05-01T22:53:56.961Z,66.90
2023-05-01T22:56:26.235Z,66.90
2023-05-01T22:58:52.992Z,66.90
2023-05-01T23:01:19.860Z,66.90
2023-05-01T23:03:46.715Z,67.00
2023-05-01T23:06:13.757Z,67.00
2023-05-01T23:08:40.556Z,67.00
2023-05-01T23:11:10.170Z,67.00
2023-05-01T23:13:37.269Z,67.00
2023-05-01T23:16:04.322Z,67.00
2023-05-01T23:18:33.050Z,67.00
2023-05-01T23:20:59.840Z,67.10
2023-05-01T23:23:29.737Z,67.10
2023-05-01T23:25:56.783Z,67.20
2023-05-01T23:28:24.614Z,67.20
2023-05-01T23:30:57.826Z,67.30
2023-05-01T23:33:25.931Z,67.30
2023-05-01T23:35:52.628Z,67.30
2023-05-01T23:38:19.577Z,67.40
2023-05-01T23:40:46.579Z,67.40
2023-05-01T23:43:13.626Z,67.40
2023-05-01T23:45:40.350Z,67.40
2023-05-01T23:48:07.753Z,67.40
2023-05-01T23:50:34.815Z,67.40
2023-05-01T23:53:10.323Z,67.60
2023-05-01T23:55:38.324Z,67.90
2023-05-01T23:58:05.078Z,67.50
